createdAt,value
2019-05-13T00:00:06.572Z,4.93
2019-05-13T00:02:36.551Z,4.43
2019-05-13T00:05:07.095Z,5.20
2019-05-13T00:07:37.058Z,5.13
2019-05-13T00:10:07.515Z,4.73
2019-05-13T00:12:37.449Z,4.57
2019-05-13T00:15:07.391Z,4.50
2019-05-13T00:17:37.272Z,4.90
2019-05-13T00:20:07.333Z,4.67
2019-05-13T00:22:37.240Z,5.20
2019-05-13T00:25:07.865Z,4.70
2019-05-13T00:27:37.693Z,5.20
2019-05-13T00:30:09.218Z,5.17
2019-05-13T00:32:39.101Z,4.70
2019-05-13T00:35:09.222Z,5.27
2019-05-13T00:37:40.187Z,4.97
2019-05-13T00:40:10.187Z,4.83
2019-05-13T00:42:40.109Z,4.50
2019-05-13T00:45:10.431Z,4.70
2019-05-13T00:47:40.278Z,4.57
2019-05-13T00:50:10.289Z,5.57
2019-05-13T00:52:40.173Z,5.20
2019-05-13T00:55:10.324Z,5.27
2019-05-13T00:57:43.624Z,5.17
2019-05-13T01:00:14.264Z,5.10
2019-05-13T01:02:44.836Z,5.23
2019-05-13T01:05:14.952Z,5.37
2019-05-13T01:07:44.909Z,4.70
2019-05-13T01:10:14.996Z,4.80
2019-05-13T01:12:44.886Z,5.03
2019-05-13T01:15:14.979Z,5.07
2019-05-13T01:17:44.983Z,4.80
2019-05-13T01:20:16.096Z,5.97
2019-05-13T01:22:45.944Z,5.33
2019-05-13T01:25:15.946Z,5.37
2019-05-13T01:27:45.870Z,5.20
2019-05-13T01:30:16.343Z,5.07
2019-05-13T01:32:46.188Z,5.47
2019-05-13T01:35:16.241Z,5.50
2019-05-13T01:37:46.354Z,5.27
2019-05-13T01:40:16.675Z,5.80
2019-05-13T01:42:46.651Z,5.90
2019-05-13T01:45:17.327Z,5.70
2019-05-13T01:47:47.330Z,5.73
2019-05-13T01:50:17.298Z,5.93
2019-05-13T01:52:47.229Z,6.77
2019-05-13T01:55:17.235Z,7.33
2019-05-13T01:57:47.229Z,6.80
2019-05-13T02:00:17.308Z,6.57
2019-05-13T02:02:47.360Z,6.30
2019-05-13T02:05:17.444Z,6.00
2019-05-13T02:07:58.930Z,6.30
2019-05-13T02:10:39.328Z,6.53
2019-05-13T02:13:09.536Z,7.00
2019-05-13T02:15:39.531Z,5.90
2019-05-13T02:18:09.413Z,7.30
2019-05-13T02:20:39.325Z,6.73
2019-05-13T02:23:10.878Z,7.00
2019-05-13T02:25:43.452Z,6.37
2019-05-13T02:28:13.875Z,6.80
2019-05-13T02:30:45.514Z,6.40
2019-05-13T02:33:15.680Z,7.40
2019-05-13T02:35:45.587Z,6.13
2019-05-13T02:38:23.973Z,6.83
2019-05-13T02:40:47.394Z,6.70
2019-05-13T02:43:17.376Z,6.73
2019-05-13T02:45:48.808Z,6.23
2019-05-13T02:48:18.782Z,6.20
2019-05-13T02:50:48.617Z,6.20
2019-05-13T02:53:18.558Z,6.40
2019-05-13T02:55:48.566Z,7.10
2019-05-13T02:58:18.560Z,6.93
2019-05-13T03:00:53.140Z,7.73
2019-05-13T03:03:23.138Z,7.03
2019-05-13T03:05:52.727Z,6.87
2019-05-13T03:08:39.717Z,6.83
2019-05-13T03:10:54.808Z,6.60
2019-05-13T03:13:24.759Z,5.70
2019-05-13T03:16:02.981Z,5.80
2019-05-13T03:18:33.676Z,5.90
2019-05-13T03:21:03.872Z,6.50
2019-05-13T03:23:34.850Z,6.83
2019-05-13T03:26:04.806Z,5.90
2019-05-13T03:28:34.798Z,6.20
2019-05-13T03:31:07.309Z,5.83
2019-05-13T03:33:37.736Z,5.87
2019-05-13T03:36:08.645Z,6.17
2019-05-13T03:38:59.728Z,6.20
2019-05-13T03:41:14.209Z,6.17
2019-05-13T03:43:44.401Z,5.90
2019-05-13T03:46:14.591Z,6.10
2019-05-13T03:48:46.160Z,5.97
2019-05-13T03:51:16.434Z,6.10
2019-05-13T03:53:46.507Z,6.13
2019-05-13T03:56:16.982Z,6.33
2019-05-13T03:58:47.170Z,5.63
2019-05-13T04:01:17.150Z,6.33
2019-05-13T04:03:47.290Z,6.23
2019-05-13T04:06:18.254Z,6.00
2019-05-13T04:08:48.397Z,5.47
2019-05-13T04:11:18.615Z,5.70
2019-05-13T04:13:48.552Z,5.87
2019-05-13T04:16:18.447Z,5.50
2019-05-13T04:18:48.407Z,5.37
2019-05-13T04:21:18.540Z,5.90
2019-05-13T04:23:48.526Z,5.57
2019-05-13T04:26:18.552Z,6.50
2019-05-13T04:28:52.398Z,6.40
2019-05-13T04:31:22.776Z,6.80
2019-05-13T04:33:53.375Z,6.73
2019-05-13T04:36:24.015Z,5.43
2019-05-13T04:38:54.169Z,5.37
2019-05-13T04:41:24.140Z,5.87
2019-05-13T04:43:54.519Z,5.97
2019-05-13T04:46:24.616Z,5.93
2019-05-13T04:48:54.592Z,5.97
2019-05-13T04:51:24.583Z,6.00
2019-05-13T04:53:57.318Z,6.10
2019-05-13T04:56:26.226Z,6.00
2019-05-13T04:58:56.682Z,5.77
2019-05-13T05:01:59.546Z,5.90
2019-05-13T05:04:52.244Z,5.93
2019-05-13T05:08:04.326Z,6.07
2019-05-13T05:11:02.162Z,5.73
2019-05-13T05:17:16.213Z,5.30
2019-05-13T05:20:17.701Z,5.67
2019-05-13T05:23:15.628Z,5.93
2019-05-13T05:26:31.375Z,6.47
2019-05-13T05:29:17.051Z,6.93
2019-05-13T05:32:31.866Z,6.40
2019-05-13T05:35:25.569Z,6.43
2019-05-13T05:38:43.269Z,6.43
2019-05-13T05:41:17.768Z,6.10
2019-05-13T05:43:52.202Z,5.77
2019-05-13T05:46:25.261Z,5.63
2019-05-13T05:48:58.394Z,5.23
2019-05-13T05:51:31.488Z,6.47
2019-05-13T05:54:03.634Z,6.40
2019-05-13T05:56:33.916Z,6.37
2019-05-13T05:59:04.268Z,6.47
2019-05-13T06:01:37.347Z,5.63
2019-05-13T06:04:06.129Z,5.97
2019-05-13T06:06:37.212Z,6.60
2019-05-13T06:09:07.866Z,6.30
2019-05-13T06:11:37.875Z,6.77
2019-05-13T06:14:07.848Z,5.93
2019-05-13T06:16:37.808Z,6.33
2019-05-13T06:19:07.996Z,6.13
2019-05-13T06:21:38.217Z,6.17
2019-05-13T06:24:08.209Z,5.23
2019-05-13T06:26:41.774Z,5.00
2019-05-13T06:29:11.622Z,6.10
2019-05-13T06:31:42.077Z,6.23
2019-05-13T06:34:12.721Z,5.27
2019-05-13T06:36:42.781Z,5.10
2019-05-13T06:39:12.862Z,4.73
2019-05-13T06:41:42.848Z,4.90
2019-05-13T06:44:12.830Z,4.00
2019-05-13T06:46:42.865Z,4.20
2019-05-13T06:49:12.958Z,4.17
2019-05-13T06:51:42.878Z,4.33
2019-05-13T06:54:12.947Z,4.03
2019-05-13T06:56:43.006Z,4.30
2019-05-13T06:59:12.889Z,4.10
2019-05-13T07:01:42.968Z,3.87
2019-05-13T07:04:12.949Z,5.23
2019-05-13T07:06:42.752Z,3.93
2019-05-13T07:09:12.639Z,4.60
2019-05-13T07:11:42.585Z,4.93
2019-05-13T07:14:12.970Z,4.47
2019-05-13T07:16:43.580Z,4.87
2019-05-13T07:19:13.427Z,4.53
2019-05-13T07:21:43.343Z,4.47
2019-05-13T07:24:13.356Z,4.23
2019-05-13T07:26:43.236Z,4.50
2019-05-13T07:29:13.695Z,4.37
2019-05-13T07:31:44.234Z,4.67
2019-05-13T07:34:14.268Z,4.47
2019-05-13T07:36:44.682Z,3.90
2019-05-13T07:39:14.820Z,4.60
2019-05-13T07:41:44.717Z,4.47
2019-05-13T07:44:14.527Z,4.87
2019-05-13T07:46:44.583Z,4.60
2019-05-13T07:49:14.428Z,4.40
2019-05-13T07:51:44.391Z,5.00
2019-05-13T07:54:14.409Z,4.07
2019-05-13T07:56:44.233Z,4.10
2019-05-13T07:59:14.199Z,4.10
2019-05-13T08:01:44.157Z,4.10
2019-05-13T08:04:22.538Z,4.17
2019-05-13T08:06:45.586Z,4.13
2019-05-13T08:09:17.533Z,4.00
2019-05-13T08:12:04.352Z,4.43
2019-05-13T08:14:21.625Z,4.27
2019-05-13T08:16:51.778Z,3.77
2019-05-13T08:19:21.998Z,3.73
2019-05-13T08:21:51.888Z,4.17
2019-05-13T08:24:22.709Z,3.87
2019-05-13T08:26:53.229Z,3.67
2019-05-13T08:29:23.448Z,3.97
2019-05-13T08:31:53.428Z,3.30
2019-05-13T08:34:24.693Z,3.63
2019-05-13T08:36:54.691Z,3.33
2019-05-13T08:39:26.873Z,4.03
2019-05-13T08:42:10.486Z,3.83
2019-05-13T08:44:28.020Z,3.47
2019-05-13T08:47:02.599Z,3.60
2019-05-13T08:49:32.521Z,3.93
2019-05-13T08:52:02.821Z,3.20
2019-05-13T08:54:33.227Z,3.40
2019-05-13T08:57:03.441Z,3.50
2019-05-13T08:59:33.424Z,3.20
2019-05-13T09:02:03.658Z,3.53
2019-05-13T09:04:33.675Z,3.40
2019-05-13T09:07:03.999Z,3.20
2019-05-13T09:09:34.024Z,3.90
2019-05-13T09:12:04.065Z,3.13
2019-05-13T09:14:33.994Z,3.10
2019-05-13T09:17:04.002Z,3.27
2019-05-13T09:19:33.988Z,3.00
2019-05-13T09:22:03.998Z,2.70
2019-05-13T09:24:37.840Z,2.93
2019-05-13T09:27:05.665Z,2.87
2019-05-13T09:29:35.679Z,3.13
2019-05-13T09:32:05.713Z,3.10
2019-05-13T09:34:35.754Z,3.00
2019-05-13T09:37:05.636Z,3.20
2019-05-13T09:39:35.667Z,2.80
2019-05-13T09:42:05.811Z,2.70
2019-05-13T09:44:35.882Z,2.67
2019-05-13T09:47:05.871Z,2.80
2019-05-13T09:49:36.322Z,2.67
2019-05-13T09:52:06.488Z,2.53
2019-05-13T09:54:36.393Z,2.80
2019-05-13T09:57:06.370Z,2.87
2019-05-13T09:59:36.199Z,2.53
2019-05-13T10:02:06.193Z,2.70
2019-05-13T10:04:36.024Z,2.50
2019-05-13T10:07:05.950Z,2.87
2019-05-13T10:09:35.953Z,3.27
2019-05-13T10:12:06.363Z,2.80
2019-05-13T10:14:36.369Z,2.70
2019-05-13T10:17:06.789Z,2.70
2019-05-13T10:19:36.876Z,2.77
2019-05-13T10:22:07.168Z,2.80
2019-05-13T10:24:37.196Z,3.00
2019-05-13T10:27:07.243Z,3.00
2019-05-13T10:29:37.545Z,2.43
2019-05-13T10:32:07.643Z,2.50
2019-05-13T10:34:38.107Z,2.90
2019-05-13T10:37:08.111Z,2.83
2019-05-13T10:39:38.095Z,2.30
2019-05-13T10:42:08.012Z,2.57
2019-05-13T10:44:37.927Z,2.30
2019-05-13T10:47:07.848Z,2.67
2019-05-13T10:49:37.751Z,2.50
2019-05-13T10:52:07.732Z,2.90
2019-05-13T10:54:37.628Z,2.77
2019-05-13T10:57:07.630Z,2.57
2019-05-13T10:59:37.666Z,3.00
2019-05-13T11:02:07.686Z,2.70
2019-05-13T11:04:37.501Z,2.63
2019-05-13T11:07:08.384Z,2.80
2019-05-13T11:09:38.301Z,2.70
2019-05-13T11:12:08.894Z,2.50
2019-05-13T11:14:38.894Z,3.00
2019-05-13T11:17:13.094Z,2.90
2019-05-13T11:19:42.208Z,2.50
2019-05-13T11:22:12.472Z,2.70
2019-05-13T11:24:43.311Z,2.80
2019-05-13T11:27:13.280Z,2.67
2019-05-13T11:29:43.159Z,2.97
2019-05-13T11:32:13.481Z,2.90
2019-05-13T11:34:43.584Z,2.80
2019-05-13T11:37:13.571Z,2.77
2019-05-13T11:39:43.492Z,2.80
2019-05-13T11:42:13.921Z,2.37
2019-05-13T11:44:44.896Z,2.70
2019-05-13T11:47:15.983Z,2.87
2019-05-13T11:49:45.982Z,2.90
2019-05-13T11:52:15.952Z,2.40
2019-05-13T11:54:45.871Z,2.60
2019-05-13T11:57:15.777Z,2.97
2019-05-13T11:59:45.803Z,3.33
2019-05-13T12:02:15.798Z,2.60
2019-05-13T12:04:45.795Z,3.07
2019-05-13T12:07:15.818Z,2.90
2019-05-13T12:09:45.747Z,2.30
2019-05-13T12:12:15.714Z,2.50
2019-05-13T12:15:16.199Z,2.33
2019-05-13T12:17:17.420Z,2.90
2019-05-13T12:19:47.268Z,2.97
2019-05-13T12:22:17.171Z,2.77
2019-05-13T12:24:47.086Z,2.40
2019-05-13T12:27:18.390Z,2.23
2019-05-13T12:29:48.290Z,2.30
2019-05-13T12:32:18.311Z,2.57
2019-05-13T12:34:48.291Z,4.07
2019-05-13T12:37:18.285Z,2.53
2019-05-13T12:39:48.188Z,2.60
2019-05-13T12:42:18.422Z,2.47
2019-05-13T12:45:01.872Z,2.00
2019-05-13T12:47:22.142Z,2.50
2019-05-13T12:49:51.460Z,2.40
2019-05-13T12:52:22.827Z,2.30
2019-05-13T12:54:53.230Z,2.30
2019-05-13T12:57:23.510Z,2.30
2019-05-13T12:59:53.420Z,1.77
2019-05-13T13:02:23.333Z,2.10
2019-05-13T13:05:10.683Z,2.40
2019-05-13T13:07:25.972Z,2.47
2019-05-13T13:09:56.588Z,2.50
2019-05-13T13:12:34.558Z,2.40
2019-05-13T13:14:58.135Z,2.50
2019-05-13T13:17:27.994Z,2.30
2019-05-13T13:20:05.939Z,2.57
2019-05-13T13:22:32.056Z,2.40
2019-05-13T13:25:04.960Z,2.27
2019-05-13T13:28:02.146Z,2.27
2019-05-13T13:30:08.413Z,2.30
2019-05-13T13:32:37.416Z,2.30
2019-05-13T13:35:07.817Z,2.47
2019-05-13T13:37:37.743Z,2.40
2019-05-13T13:40:08.252Z,2.33
2019-05-13T13:42:38.171Z,2.30
2019-05-13T13:45:08.464Z,2.50
2019-05-13T13:47:38.394Z,2.20
2019-05-13T13:50:08.696Z,2.40
2019-05-13T13:52:38.663Z,2.57
2019-05-13T13:55:09.417Z,2.10
2019-05-13T13:57:43.670Z,2.13
2019-05-13T14:00:31.745Z,1.90
2019-05-13T14:02:43.287Z,2.10
2019-05-13T14:05:13.297Z,2.37
2019-05-13T14:07:43.123Z,2.30
2019-05-13T14:10:13.306Z,2.40
2019-05-13T14:12:43.241Z,2.50
2019-05-13T14:15:13.932Z,2.00
2019-05-13T14:17:43.931Z,2.20
2019-05-13T14:20:14.408Z,2.17
2019-05-13T14:22:44.323Z,2.43
2019-05-13T14:25:14.309Z,2.30
2019-05-13T14:27:44.164Z,2.90
2019-05-13T14:30:14.572Z,2.03
2019-05-13T14:32:44.503Z,2.60
2019-05-13T14:35:14.581Z,2.50
2019-05-13T14:37:44.425Z,2.10
2019-05-13T14:40:14.824Z,2.00
2019-05-13T14:42:44.944Z,1.90
2019-05-13T14:45:15.131Z,1.80
2019-05-13T14:47:45.343Z,2.00
2019-05-13T14:50:16.147Z,2.23
2019-05-13T14:52:46.068Z,2.27
2019-05-13T14:55:16.068Z,1.97
2019-05-13T14:57:46.089Z,2.03
2019-05-13T15:00:16.286Z,1.77
2019-05-13T15:02:46.384Z,1.90
2019-05-13T15:05:16.393Z,2.20
2019-05-13T15:07:46.353Z,1.90
2019-05-13T15:10:16.657Z,1.73
2019-05-13T15:12:46.625Z,2.00
2019-05-13T15:15:16.878Z,1.93
2019-05-13T15:17:46.866Z,1.90
2019-05-13T15:20:17.033Z,1.90
2019-05-13T15:22:46.987Z,1.50
2019-05-13T15:25:16.891Z,2.10
2019-05-13T15:27:46.793Z,1.87
2019-05-13T15:30:18.206Z,1.70
2019-05-13T15:32:48.342Z,2.20
2019-05-13T15:35:18.333Z,1.87
2019-05-13T15:37:48.251Z,1.43
2019-05-13T15:40:18.255Z,1.90
2019-05-13T15:42:48.284Z,1.63
2019-05-13T15:45:18.312Z,1.50
2019-05-13T15:47:48.429Z,1.50
2019-05-13T15:50:18.501Z,1.33
2019-05-13T15:52:48.542Z,1.80
2019-05-13T15:55:18.601Z,1.87
2019-05-13T15:57:48.632Z,2.10
2019-05-13T16:00:21.791Z,1.70
2019-05-13T16:02:52.236Z,1.60
2019-05-13T16:05:22.314Z,1.70
2019-05-13T16:07:52.488Z,1.70
2019-05-13T16:10:22.557Z,1.53
2019-05-13T16:12:52.506Z,1.80
2019-05-13T16:15:22.487Z,1.50
2019-05-13T16:17:52.398Z,1.30
2019-05-13T16:20:22.297Z,1.90
2019-05-13T16:22:52.820Z,1.67
2019-05-13T16:25:22.922Z,1.67
2019-05-13T16:27:52.886Z,1.73
2019-05-13T16:30:23.516Z,1.60
2019-05-13T16:32:53.430Z,1.67
2019-05-13T16:38:08.222Z,1.77
2019-05-13T16:40:38.422Z,2.10
2019-05-13T16:43:08.397Z,1.60
2019-05-13T16:45:38.398Z,1.80
2019-05-13T16:48:08.742Z,1.90
2019-05-13T16:50:38.728Z,1.80
2019-05-13T16:53:08.637Z,2.00
2019-05-13T16:55:41.538Z,1.70
2019-05-13T16:58:12.581Z,2.07
2019-05-13T17:00:43.725Z,2.00
2019-05-13T17:03:13.783Z,1.70
2019-05-13T17:05:44.545Z,1.80
2019-05-13T17:08:14.748Z,2.00
2019-05-13T17:10:44.576Z,1.87
2019-05-13T17:13:14.658Z,1.90
2019-05-13T17:15:44.747Z,1.70
2019-05-13T17:18:15.451Z,1.90
2019-05-13T17:20:45.552Z,1.90
2019-05-13T17:23:16.520Z,2.00
2019-05-13T17:25:46.981Z,1.73
2019-05-13T17:28:18.095Z,1.63
2019-05-13T17:30:49.176Z,1.83
2019-05-13T17:33:22.856Z,1.90
2019-05-13T17:35:50.914Z,1.67
2019-05-13T17:38:21.750Z,1.80
2019-05-13T17:40:53.121Z,1.57
2019-05-13T17:43:23.390Z,1.80
2019-05-13T17:45:54.235Z,1.67
2019-05-13T17:48:29.111Z,2.33
2019-05-13T17:50:56.970Z,2.00
2019-05-13T17:53:26.990Z,1.67
2019-05-13T17:55:56.924Z,1.83
2019-05-13T17:58:26.907Z,1.70
2019-05-13T18:00:56.883Z,1.80
2019-05-13T18:03:26.929Z,1.80
2019-05-13T18:05:56.919Z,1.83
2019-05-13T18:08:26.851Z,1.70
2019-05-13T18:10:56.795Z,1.53
2019-05-13T18:13:26.875Z,1.93
2019-05-13T18:15:56.875Z,1.80
2019-05-13T18:18:38.973Z,2.33
2019-05-13T18:20:58.453Z,2.30
2019-05-13T18:23:28.334Z,2.00
2019-05-13T18:26:01.746Z,2.00
2019-05-13T18:28:31.896Z,1.87
2019-05-13T18:31:02.009Z,1.90
2019-05-13T18:33:32.243Z,1.83
2019-05-13T18:36:02.219Z,1.70
2019-05-13T18:38:32.411Z,1.90
2019-05-13T18:41:02.611Z,2.03
2019-05-13T18:43:32.594Z,1.67
2019-05-13T18:46:04.092Z,1.90
2019-05-13T18:48:34.109Z,1.80
2019-05-13T18:51:04.140Z,1.83
2019-05-13T18:53:34.123Z,2.07
2019-05-13T18:56:04.338Z,2.20
2019-05-13T18:58:34.278Z,2.30
2019-05-13T19:01:04.324Z,2.07
2019-05-13T19:03:34.189Z,2.20
2019-05-13T19:06:04.233Z,1.70
2019-05-13T19:08:34.151Z,1.93
2019-05-13T19:11:04.059Z,1.90
2019-05-13T19:13:34.087Z,1.73
2019-05-13T19:16:04.195Z,2.00
2019-05-13T19:18:34.261Z,2.03
2019-05-13T19:21:04.177Z,2.20
2019-05-13T19:23:34.160Z,2.20
2019-05-13T19:26:04.005Z,2.20
2019-05-13T19:28:33.931Z,2.47
2019-05-13T19:31:03.916Z,2.87
2019-05-13T19:33:33.755Z,2.70
2019-05-13T19:36:03.685Z,3.10
2019-05-13T19:38:33.679Z,2.97
2019-05-13T19:41:03.928Z,3.20
2019-05-13T19:43:33.816Z,2.70
2019-05-13T19:46:03.792Z,2.47
2019-05-13T19:48:33.779Z,2.60
2019-05-13T19:51:03.833Z,2.70
2019-05-13T19:53:33.753Z,2.90
2019-05-13T19:56:03.717Z,3.33
2019-05-13T19:58:33.677Z,2.90
2019-05-13T20:01:03.622Z,2.90
2019-05-13T20:03:33.600Z,2.43
2019-05-13T20:06:03.506Z,2.63
2019-05-13T20:08:33.507Z,2.40
2019-05-13T20:11:03.405Z,2.60
2019-05-13T20:13:35.143Z,2.50
2019-05-13T20:16:05.498Z,2.93
2019-05-13T20:18:35.658Z,3.10
2019-05-13T20:21:05.787Z,3.20
2019-05-13T20:23:35.753Z,2.97
2019-05-13T20:26:05.673Z,3.00
2019-05-13T20:28:35.514Z,3.03
2019-05-13T20:31:05.495Z,3.63
2019-05-13T20:33:39.605Z,2.80
2019-05-13T20:36:07.077Z,2.80
2019-05-13T20:38:38.131Z,3.43
2019-05-13T20:41:08.602Z,3.93
2019-05-13T20:43:38.563Z,3.50
2019-05-13T20:46:08.396Z,3.40
2019-05-13T20:48:38.350Z,3.30
2019-05-13T20:51:08.399Z,3.50
2019-05-13T20:53:38.326Z,3.07
2019-05-13T20:56:08.440Z,2.97
2019-05-13T20:58:38.586Z,3.00
2019-05-13T21:01:08.559Z,3.00
2019-05-13T21:03:38.382Z,3.17
2019-05-13T21:06:08.215Z,3.10
2019-05-13T21:08:38.138Z,3.27
2019-05-13T21:11:07.964Z,2.57
2019-05-13T21:13:38.055Z,3.00
2019-05-13T21:16:08.094Z,2.80
2019-05-13T21:18:38.275Z,3.17
2019-05-13T21:21:08.313Z,2.80
2019-05-13T21:23:38.154Z,2.43
2019-05-13T21:26:08.072Z,2.60
2019-05-13T21:28:37.929Z,2.70
2019-05-13T21:31:07.832Z,2.67
2019-05-13T21:33:37.817Z,2.33
2019-05-13T21:36:07.746Z,2.10
2019-05-13T21:38:38.752Z,2.63
2019-05-13T21:41:28.528Z,2.53
2019-05-13T21:43:58.439Z,2.30
2019-05-13T21:46:28.443Z,2.50
2019-05-13T21:49:01.070Z,2.10
2019-05-13T21:51:31.532Z,1.97
2019-05-13T21:54:01.633Z,2.27
2019-05-13T21:56:31.986Z,1.97
2019-05-13T21:59:02.034Z,2.20
2019-05-13T22:01:32.011Z,2.30
2019-05-13T22:04:01.927Z,2.10
2019-05-13T22:06:32.345Z,2.10
2019-05-13T22:09:02.401Z,2.30
2019-05-13T22:11:35.173Z,2.30
2019-05-13T22:14:05.266Z,2.23
2019-05-13T22:16:35.227Z,2.47
2019-05-13T22:19:05.269Z,2.30
2019-05-13T22:21:35.192Z,2.07
2019-05-13T22:24:05.216Z,2.20
2019-05-13T22:26:35.180Z,1.97
2019-05-13T22:29:05.277Z,2.20
2019-05-13T22:31:35.093Z,2.07
2019-05-13T22:34:05.165Z,2.53
2019-05-13T22:36:34.979Z,2.10
2019-05-13T22:39:06.667Z,2.40
2019-05-13T22:41:36.840Z,2.47
2019-05-13T22:44:07.820Z,1.90
2019-05-13T22:46:37.846Z,2.13
2019-05-13T22:49:07.990Z,2.47
2019-05-13T22:51:37.893Z,2.30
2019-05-13T22:54:07.882Z,2.20
2019-05-13T22:56:37.724Z,2.37
2019-05-13T22:59:07.741Z,2.30
2019-05-13T23:01:37.565Z,2.30
2019-05-13T23:04:07.733Z,2.37
2019-05-13T23:06:37.695Z,2.50
2019-05-13T23:09:07.680Z,2.23
2019-05-13T23:11:37.617Z,2.40
2019-05-13T23:14:10.918Z,2.00
2019-05-13T23:16:39.271Z,2.43
2019-05-13T23:19:11.102Z,2.20
2019-05-13T23:21:41.810Z,2.03
2019-05-13T23:24:11.952Z,2.30
2019-05-13T23:26:42.375Z,2.37
2019-05-13T23:29:12.317Z,2.40
2019-05-13T23:31:42.192Z,2.40
2019-05-13T23:34:12.231Z,2.20
2019-05-13T23:36:42.433Z,2.47
2019-05-13T23:39:12.523Z,2.60
2019-05-13T23:41:42.486Z,2.10
2019-05-13T23:44:23.654Z,2.20
2019-05-13T23:46:44.047Z,2.30
2019-05-13T23:49:13.949Z,2.63
2019-05-13T23:51:45.218Z,2.33
2019-05-13T23:54:15.136Z,2.47
2019-05-13T23:56:45.126Z,2.30
2019-05-13T23:59:34.179Z,2.23
